De Soto, Kansas
Current Conditions -  °F | °C
As of 11:53 AM on Saturday 20 Dec 2014 (Local Time) from KIXD Reporting Station
Clear Clear  
Wind Chill: 36°   Ceiling: Unl
Heat Index: 42°   Visibility: 9mi
Dew Point: 37°   Wind: 12mph
Humidity: 82%   Direction: 190°S
Pressure: 30.15"   Gusts: NA
Location:  38.98°N, 94.97°W
Report Text: KIXD 201753Z 19010KT 9SM CLR 06/03 A3015 RMK AO2 SLP217 T00560028 10056 20000 58009
Loading
Personal Weather Stations






























Interactive Weather Map New forecast layout! Learn more

10-Day Weather Forecast

Advertisements
Track Severe Weather on mobile